Time;durP1;ratioP1;P1;durP2;ratioP2;P2;SDS_P1;SDS_P2;PMS_P1;PMS_P2;Temp;Humidity;BMP_temperature;BMP_pressure;BME280_temperature;BME280_humidity;BME280_pressure;Samples;Min_cycle;Max_cycle;Signal;HPM_P1;HPM_P2
2023/03/09 00:02:02;;;;;;;0.95;0.95;;;;;;;19.90;32.79;98130.47;1860858;76;28246;-55
2023/03/09 00:04:50;;;;;;;1.10;1.10;;;;;;;19.88;32.82;98105.37;1858213;76;28063;-55
2023/03/09 00:07:39;;;;;;;1.10;1.10;;;;;;;19.88;32.78;98117.63;1837461;77;28200;-54
2023/03/09 00:10:27;;;;;;;1.20;1.10;;;;;;;19.91;32.80;98126.65;1849785;76;28157;-56
2023/03/09 00:13:16;;;;;;;1.10;1.10;;;;;;;19.90;32.78;98129.10;1847496;76;28592;-56
2023/03/09 00:16:19;;;;;;;1.00;1.00;;;;;;;19.90;32.83;98131.83;1847766;76;28172;-56
2023/03/09 00:19:08;;;;;;;1.20;1.20;;;;;;;19.89;32.83;98127.44;1849419;76;28309;-54
2023/03/09 00:21:57;;;;;;;1.02;1.02;;;;;;;19.89;32.85;98124.71;1851111;76;28243;-55
2023/03/09 00:24:46;;;;;;;1.05;1.05;;;;;;;19.87;32.85;98122.78;1860468;76;28723;-55
2023/03/09 00:27:35;;;;;;;1.00;1.00;;;;;;;19.87;32.89;98084.62;1858458;76;28102;-57
2023/03/09 00:30:23;;;;;;;0.90;0.90;;;;;;;19.87;32.87;98099.09;1855496;76;28094;-56
2023/03/09 00:33:12;;;;;;;0.90;0.90;;;;;;;19.86;32.89;98111.61;1849768;76;28137;-54
2023/03/09 00:36:00;;;;;;;0.90;0.90;;;;;;;19.88;32.88;98099.92;1848133;76;28133;-57
2023/03/09 00:38:55;;;;;;;0.90;0.90;;;;;;;19.88;32.85;98124.44;1847754;76;28206;-55
2023/03/09 00:41:45;;;;;;;0.98;0.98;;;;;;;19.87;32.91;98135.05;1851049;76;28186;-56
2023/03/09 00:44:33;;;;;;;1.00;1.00;;;;;;;19.88;32.90;98114.91;1849908;76;28188;-56
2023/03/09 00:47:22;;;;;;;1.22;1.10;;;;;;;19.89;32.89;98120.63;1848022;76;28097;-55
2023/03/09 00:50:11;;;;;;;1.07;1.07;;;;;;;19.89;32.86;98136.45;1848050;76;32142;-53
2023/03/09 00:53:00;;;;;;;1.90;1.12;;;;;;;19.87;32.84;98150.86;1869192;76;28192;-55
2023/03/09 00:55:49;;;;;;;1.00;1.00;;;;;;;19.88;32.88;98138.07;1849353;76;32088;-54
2023/03/09 00:58:38;;;;;;;1.02;1.02;;;;;;;19.86;32.93;98140.22;1847291;76;28214;-54
2023/03/09 01:01:26;;;;;;;0.93;0.93;;;;;;;19.88;32.89;98143.52;1868087;76;29140;-55
2023/03/09 01:04:14;;;;;;;1.10;1.10;;;;;;;19.88;32.91;98132.62;1853113;76;28094;-54
2023/03/09 01:07:03;;;;;;;1.00;1.00;;;;;;;19.86;32.90;98127.40;1859315;76;28313;-55
2023/03/09 01:09:52;;;;;;;1.10;1.10;;;;;;;19.88;32.87;98128.53;1841786;76;28171;-56
2023/03/09 01:12:42;;;;;;;1.10;1.10;;;;;;;19.87;32.93;98147.30;1869157;76;28174;-55
2023/03/09 01:15:30;;;;;;;1.10;1.10;;;;;;;19.87;32.90;98140.49;1844507;76;28267;-57
2023/03/09 01:18:19;;;;;;;1.00;1.00;;;;;;;19.87;32.89;98152.75;1845840;76;28127;-56
2023/03/09 01:21:08;;;;;;;1.10;1.10;;;;;;;19.87;32.91;98142.69;1866161;76;28128;-57
2023/03/09 01:23:57;;;;;;;0.80;0.80;;;;;;;19.88;32.90;98142.95;1843907;77;28163;-54
2023/03/09 01:26:47;;;;;;;1.10;1.10;;;;;;;19.85;32.92;98144.84;1839132;77;32962;-57
2023/03/09 01:29:36;;;;;;;1.10;1.10;;;;;;;19.86;32.92;98136.94;1861427;76;28180;-55
2023/03/09 01:32:25;;;;;;;0.93;0.88;;;;;;;19.87;32.93;98145.94;1839640;76;28242;-56
2023/03/09 01:35:14;;;;;;;1.00;1.00;;;;;;;19.86;32.93;98132.05;1868777;76;28172;-57
2023/03/09 01:38:03;;;;;;;0.80;0.80;;;;;;;19.86;32.95;98124.67;1849357;76;28106;-59
2023/03/09 01:40:52;;;;;;;1.10;1.10;;;;;;;19.87;32.94;98139.13;1847990;76;28092;-57
2023/03/09 01:43:42;;;;;;;1.20;1.10;;;;;;;19.88;32.89;98108.89;1856440;77;28216;-55
2023/03/09 01:46:34;;;;;;;1.20;1.10;;;;;;;19.87;32.90;98136.41;1825973;77;28255;-55
2023/03/09 01:49:37;;;;;;;0.95;0.93;;;;;;;19.86;32.95;98125.23;1826044;78;38582;-54
2023/03/09 01:52:28;;;;;;;1.10;1.10;;;;;;;19.88;32.92;98131.25;1855888;77;28084;-53
2023/03/09 01:55:22;;;;;;;1.10;1.10;;;;;;;19.82;32.98;98099.01;1868913;76;28102;-55
2023/03/09 01:58:15;;;;;;;1.00;1.00;;;;;;;19.84;33.00;98109.11;1836218;77;28330;-53
2023/03/09 02:01:03;;;;;;;1.12;1.10;;;;;;;19.81;33.01;98114.25;1842899;77;28144;-53
2023/03/09 02:03:55;;;;;;;1.05;1.05;;;;;;;19.82;33.02;98109.08;1837177;77;28142;-55
2023/03/09 02:06:44;;;;;;;1.20;1.10;;;;;;;19.83;33.01;98119.75;1836405;77;28115;-55
2023/03/09 02:09:44;;;;;;;1.00;1.00;;;;;;;19.83;32.99;98147.52;1856021;77;28166;-53
2023/03/09 02:12:34;;;;;;;1.10;1.10;;;;;;;19.82;32.99;98098.17;1856596;76;32049;-55
2023/03/09 02:15:24;;;;;;;0.88;0.88;;;;;;;19.82;33.04;98089.47;1850833;76;28113;-56
2023/03/09 02:18:13;;;;;;;1.00;1.00;;;;;;;19.80;33.08;98101.69;1847739;76;28060;-56
2023/03/09 02:21:17;;;;;;;1.02;1.02;;;;;;;19.81;33.05;98132.77;1847868;76;32082;-55
2023/03/09 02:24:29;;;;;;;0.93;0.93;;;;;;;19.83;33.03;98109.38;1848260;76;28185;-54
2023/03/09 02:27:21;;;;;;;1.00;1.00;;;;;;;19.80;33.05;98113.42;1857421;76;28121;-53
2023/03/09 02:30:11;;;;;;;1.00;1.00;;;;;;;19.79;33.10;98116.41;1868833;76;28126;-55
2023/03/09 02:33:09;;;;;;;1.10;1.10;;;;;;;19.78;33.09;98118.30;1847902;76;28147;-56
2023/03/09 02:36:00;;;;;;;1.15;1.12;;;;;;;19.85;33.05;98098.52;1842080;76;28180;-55
2023/03/09 02:38:49;;;;;;;0.90;0.90;;;;;;;19.84;33.05;98102.83;1858290;76;28081;-53
2023/03/09 02:41:38;;;;;;;0.90;0.90;;;;;;;19.81;33.07;98110.97;1853966;76;28080;-54
2023/03/09 02:44:28;;;;;;;1.05;1.05;;;;;;;19.82;33.05;98119.44;1848332;76;28111;-56
2023/03/09 02:47:22;;;;;;;0.82;0.82;;;;;;;19.82;33.07;98115.89;1862920;76;28210;-55
2023/03/09 02:50:12;;;;;;;1.20;1.10;;;;;;;19.83;33.05;98129.81;1859594;75;33073;-56
2023/03/09 02:53:04;;;;;;;0.90;0.90;;;;;;;19.84;33.08;98149.98;1869050;76;28123;-56
2023/03/09 02:55:53;;;;;;;1.60;1.10;;;;;;;19.82;33.07;98141.77;1855592;76;28206;-57
2023/03/09 02:58:42;;;;;;;0.90;0.90;;;;;;;19.85;33.04;98127.13;1858669;76;28293;-55
2023/03/09 03:01:31;;;;;;;1.00;1.00;;;;;;;19.84;33.01;98134.17;1858269;76;28053;-53
2023/03/09 03:04:19;;;;;;;1.27;1.17;;;;;;;19.86;33.04;98134.21;1854954;76;28081;-56
2023/03/09 03:07:08;;;;;;;0.90;0.90;;;;;;;19.87;33.05;98126.87;1849123;76;28129;-56
2023/03/09 03:09:56;;;;;;;0.90;0.90;;;;;;;19.87;33.01;98133.68;1847467;76;28166;-54
2023/03/09 03:12:45;;;;;;;1.00;1.00;;;;;;;19.88;33.01;98150.33;1847715;76;28182;-54
2023/03/09 03:15:35;;;;;;;1.00;1.00;;;;;;;19.87;33.03;98148.14;1851816;75;28132;-55
2023/03/09 03:18:23;;;;;;;0.93;0.93;;;;;;;19.85;33.05;98155.73;1836074;77;28141;-57
2023/03/09 03:21:11;;;;;;;0.90;0.90;;;;;;;19.87;33.02;98158.20;1836353;77;28096;-55
2023/03/09 03:24:01;;;;;;;1.00;1.00;;;;;;;19.84;33.04;98145.91;1836824;77;28162;-53
2023/03/09 03:26:51;;;;;;;0.82;0.82;;;;;;;19.86;33.05;98144.31;1840826;77;28090;-52
2023/03/09 03:29:41;;;;;;;0.90;0.90;;;;;;;19.84;33.05;98147.80;1856725;77;28155;-55
2023/03/09 03:32:31;;;;;;;1.00;1.00;;;;;;;19.85;33.05;98134.47;1836493;77;28152;-56
2023/03/09 03:35:19;;;;;;;1.00;1.00;;;;;;;19.86;33.05;98136.94;1856809;77;28150;-55
2023/03/09 03:38:07;;;;;;;1.12;1.12;;;;;;;19.86;33.02;98138.30;1839864;77;28056;-55
2023/03/09 03:40:57;;;;;;;0.90;0.90;;;;;;;19.88;33.00;98151.13;1848061;76;28172;-54
2023/03/09 03:43:47;;;;;;;0.90;0.90;;;;;;;19.88;33.00;98167.48;1848110;76;28282;-55
2023/03/09 03:46:36;;;;;;;0.72;0.72;;;;;;;19.87;33.00;98154.95;1856973;77;28111;-55
2023/03/09 03:49:25;;;;;;;1.10;1.10;;;;;;;19.86;33.03;98155.21;1842865;77;28196;-52
2023/03/09 03:52:13;;;;;;;0.90;0.90;;;;;;;19.86;33.29;98164.19;1854346;77;28166;-55
2023/03/09 03:55:03;;;;;;;1.00;0.90;;;;;;;19.86;33.29;98164.19;1856913;77;28120;-52
2023/03/09 03:57:52;;;;;;;1.07;0.98;;;;;;;19.86;33.02;98159.30;1839686;77;28341;-54
2023/03/09 04:00:41;;;;;;;0.72;0.72;;;;;;;19.85;33.04;98165.28;1849737;76;29101;-52
2023/03/09 04:03:31;;;;;;;1.15;1.05;;;;;;;19.85;33.02;98173.98;1861737;76;28245;-53
2023/03/09 04:06:19;;;;;;;0.78;0.78;;;;;;;19.82;33.06;98169.85;1858302;76;28137;-56
2023/03/09 04:09:09;;;;;;;1.00;1.00;;;;;;;19.84;33.06;98172.31;1842613;77;28134;-56
2023/03/09 04:11:57;;;;;;;1.00;1.00;;;;;;;19.84;33.07;98183.22;1836800;77;28076;-54
2023/03/09 04:14:46;;;;;;;0.90;0.90;;;;;;;19.84;33.03;98185.94;1851783;77;38548;-57
2023/03/09 04:17:35;;;;;;;0.90;0.90;;;;;;;19.85;33.06;98212.13;1858146;75;28129;-53
2023/03/09 04:20:25;;;;;;;0.70;0.70;;;;;;;19.85;33.06;98212.13;1853861;76;28275;-55
2023/03/09 04:23:14;;;;;;;0.90;0.90;;;;;;;19.85;33.04;98208.05;1847328;76;28142;-55
2023/03/09 04:26:06;;;;;;;1.05;0.95;;;;;;;19.84;33.07;98206.38;1848017;76;28109;-54
2023/03/09 04:28:56;;;;;;;1.10;1.00;;;;;;;19.85;33.07;98212.13;1847987;76;28188;-55
2023/03/09 04:31:44;;;;;;;0.90;0.90;;;;;;;19.84;33.08;98230.91;1852223;76;28156;-54
2023/03/09 04:34:33;;;;;;;1.00;1.00;;;;;;;19.86;33.06;98232.87;1859247;76;28149;-54
2023/03/09 04:37:22;;;;;;;0.78;0.78;;;;;;;19.85;33.05;98234.77;1858670;76;28163;-54
2023/03/09 04:40:14;;;;;;;0.90;0.90;;;;;;;19.84;33.07;98231.73;1857252;76;28228;-56
2023/03/09 04:43:04;;;;;;;0.80;0.80;;;;;;;19.85;33.08;98232.04;1852100;76;28067;-52
2023/03/09 04:45:53;;;;;;;0.83;0.83;;;;;;;19.85;33.07;98243.47;1859546;76;28163;-54
2023/03/09 04:48:42;;;;;;;0.80;0.80;;;;;;;19.84;33.08;98245.89;1858263;76;28224;-56
2023/03/09 04:51:31;;;;;;;1.65;0.85;;;;;;;19.86;33.04;98248.66;1857303;76;28201;-54
2023/03/09 04:54:21;;;;;;;0.93;0.93;;;;;;;19.84;33.03;98246.72;1851801;76;28060;-56
2023/03/09 04:57:10;;;;;;;0.90;0.90;;;;;;;19.87;33.01;98257.67;1847988;76;28219;-57
2023/03/09 05:00:00;;;;;;;1.15;1.05;;;;;;;19.83;33.07;98251.91;1847575;76;28496;-57
2023/03/09 05:02:49;;;;;;;0.80;0.80;;;;;;;19.86;33.07;98250.58;1868955;76;28118;-54
2023/03/09 05:05:38;;;;;;;1.10;0.98;;;;;;;19.84;33.09;98252.70;1837361;77;28211;-54
2023/03/09 05:08:26;;;;;;;1.02;0.90;;;;;;;19.84;33.10;98250.81;1858475;76;28278;-54
2023/03/09 05:11:15;;;;;;;0.80;0.80;;;;;;;19.83;33.09;98251.06;1837558;77;28341;-56
2023/03/09 05:14:04;;;;;;;0.70;0.70;;;;;;;19.83;33.08;98257.88;1854893;76;28056;-55
2023/03/09 05:16:54;;;;;;;1.00;1.00;;;;;;;19.82;33.11;98263.86;1837584;77;28192;-55
2023/03/09 05:19:44;;;;;;;0.85;0.85;;;;;;;19.85;33.09;98262.55;1834622;76;28280;-57
2023/03/09 05:22:33;;;;;;;1.00;1.00;;;;;;;19.83;33.11;98261.97;1855231;76;28141;-57
2023/03/09 05:25:22;;;;;;;0.70;0.70;;;;;;;19.81;33.10;98262.75;1854145;76;28076;-56
2023/03/09 05:28:12;;;;;;;0.90;0.90;;;;;;;19.84;33.12;98264.97;1848583;76;28064;-55
2023/03/09 05:31:02;;;;;;;0.80;0.80;;;;;;;19.83;33.09;98260.61;1863085;76;28236;-56
2023/03/09 05:33:53;;;;;;;0.80;0.80;;;;;;;19.85;33.11;98263.91;1858514;76;28099;-55
2023/03/09 05:36:43;;;;;;;0.88;0.88;;;;;;;19.83;33.09;98257.88;1853058;76;28134;-55
2023/03/09 05:39:34;;;;;;;0.90;0.90;;;;;;;19.82;33.09;98257.58;1858099;76;28157;-56
2023/03/09 05:42:23;;;;;;;0.75;0.75;;;;;;;19.83;33.07;98270.98;1858686;76;28650;-57
2023/03/09 05:45:12;;;;;;;0.80;0.80;;;;;;;19.83;33.06;98270.14;1837687;77;34232;-57
2023/03/09 05:48:00;;;;;;;1.10;1.10;;;;;;;19.83;33.09;98267.41;1852550;76;28126;-57
2023/03/09 05:50:49;;;;;;;0.80;0.80;;;;;;;19.83;33.12;98265.52;1847338;76;28094;-52
2023/03/09 05:53:37;;;;;;;0.72;0.72;;;;;;;19.83;33.11;98275.59;1868615;76;28208;-53
2023/03/09 05:56:26;;;;;;;0.77;0.77;;;;;;;19.84;33.13;98278.06;1868764;76;28064;-53
2023/03/09 05:59:16;;;;;;;1.00;1.00;;;;;;;19.84;33.09;98279.95;1854460;76;28144;-55
2023/03/09 06:02:05;;;;;;;0.93;0.93;;;;;;;19.85;33.10;98292.52;1858304;76;28267;-56
2023/03/09 06:04:55;;;;;;;0.90;0.90;;;;;;;19.85;33.10;98300.69;1861729;76;28146;-55
2023/03/09 06:07:44;;;;;;;0.80;0.80;;;;;;;19.84;33.11;98303.11;1849936;76;28133;-57
2023/03/09 06:10:32;;;;;;;0.85;0.85;;;;;;;19.84;33.08;98300.39;1851046;76;28138;-57
2023/03/09 06:13:21;;;;;;;0.70;0.70;;;;;;;19.86;33.08;98300.44;1839561;76;28193;-54
2023/03/09 06:16:12;;;;;;;0.85;0.85;;;;;;;19.85;33.08;98297.97;1858161;76;28181;-54
2023/03/09 06:19:01;;;;;;;1.00;0.78;;;;;;;19.86;33.09;98306.45;1857886;75;28185;-55
2023/03/09 06:21:49;;;;;;;0.88;0.88;;;;;;;19.83;33.06;98302.31;1865203;75;28172;-53
2023/03/09 06:24:39;;;;;;;0.70;0.70;;;;;;;19.84;33.11;98305.31;1877789;75;28627;-55
2023/03/09 06:27:28;;;;;;;0.90;0.90;;;;;;;19.85;33.08;98311.06;1874116;75;28134;-53
2023/03/09 06:30:17;;;;;;;1.00;1.00;;;;;;;19.85;33.07;98310.23;1851621;77;28168;-55
2023/03/09 06:33:06;;;;;;;0.73;0.73;;;;;;;19.85;33.09;98308.87;1863491;75;28117;-54
2023/03/09 06:35:56;;;;;;;0.80;0.80;;;;;;;19.85;33.09;98304.78;1863357;75;28063;-53
2023/03/09 06:38:45;;;;;;;0.80;0.80;;;;;;;19.84;33.06;98317.57;1863632;75;28162;-55
2023/03/09 06:41:35;;;;;;;0.80;0.80;;;;;;;19.85;33.07;98312.95;1868215;75;28137;-52
2023/03/09 06:44:31;;;;;;;0.85;0.85;;;;;;;19.85;33.07;98312.42;1864445;75;28171;-56
2023/03/09 06:47:20;;;;;;;0.80;0.80;;;;;;;19.84;33.07;98316.21;1862704;75;28193;-55
2023/03/09 06:50:11;;;;;;;0.98;0.98;;;;;;;19.83;33.10;98313.73;1862915;75;31108;-56
2023/03/09 06:53:01;;;;;;;0.87;0.87;;;;;;;19.83;33.13;98319.19;1884501;75;28157;-55
2023/03/09 06:55:49;;;;;;;0.80;0.80;;;;;;;19.83;33.12;98323.28;1864927;75;28111;-55
2023/03/09 06:58:39;;;;;;;0.90;0.90;;;;;;;19.84;33.10;98329.83;1877695;75;28133;-55
2023/03/09 07:01:28;;;;;;;0.73;0.73;;;;;;;19.85;33.09;98322.49;1873898;75;28410;-55
2023/03/09 07:04:18;;;;;;;0.80;0.80;;;;;;;19.84;33.09;98325.75;1869814;75;28149;-55
2023/03/09 07:07:07;;;;;;;0.90;0.90;;;;;;;19.87;33.07;98336.70;1864359;75;28063;-54
2023/03/09 07:09:56;;;;;;;0.70;0.70;;;;;;;19.89;33.05;98354.45;1862785;75;28087;-56
2023/03/09 07:12:46;;;;;;;0.90;0.90;;;;;;;19.90;33.05;98369.75;1884172;75;28084;-53
2023/03/09 07:15:36;;;;;;;0.82;0.82;;;;;;;19.89;33.04;98364.00;1868918;75;28096;-55
2023/03/09 07:18:24;;;;;;;0.70;0.70;;;;;;;19.89;33.07;98364.52;1863218;75;28067;-56
2023/03/09 07:21:13;;;;;;;0.72;0.70;;;;;;;19.87;33.05;98371.59;1853242;75;28154;-56
2023/03/09 07:24:01;;;;;;;0.70;0.70;;;;;;;19.87;33.06;98380.30;1848943;76;28162;-53
2023/03/09 07:26:50;;;;;;;0.80;0.80;;;;;;;19.88;33.11;98375.16;1837605;77;28251;-53
2023/03/09 07:29:40;;;;;;;0.72;0.72;;;;;;;19.88;33.06;98379.23;1846732;76;28067;-53
2023/03/09 07:32:28;;;;;;;0.80;0.80;;;;;;;19.89;33.04;98379.52;1864610;76;28526;-53
2023/03/09 07:35:17;;;;;;;0.90;0.90;;;;;;;19.89;33.03;98383.08;1857279;76;28108;-55
2023/03/09 07:38:06;;;;;;;0.80;0.80;;;;;;;19.90;33.03;98374.38;1851231;76;28126;-56
2023/03/09 07:40:56;;;;;;;0.90;0.90;;;;;;;19.89;33.06;98379.52;1847659;76;28087;-56
2023/03/09 07:43:45;;;;;;;0.90;0.90;;;;;;;19.88;33.07;98373.79;1848062;76;30110;-54
2023/03/09 07:46:41;;;;;;;0.70;0.70;;;;;;;19.90;33.02;98370.28;1848721;76;28181;-53
2023/03/09 07:49:30;;;;;;;0.85;0.85;;;;;;;19.88;33.04;98382.77;1851345;76;28454;-57
2023/03/09 07:52:18;;;;;;;0.87;0.87;;;;;;;19.89;33.04;98383.08;1848157;76;28104;-54
2023/03/09 07:55:09;;;;;;;0.80;0.80;;;;;;;19.90;33.03;98384.74;1865822;76;28095;-54
2023/03/09 07:57:57;;;;;;;0.70;0.70;;;;;;;19.90;33.05;98384.74;1837913;77;28178;-51
2023/03/09 08:00:45;;;;;;;1.00;0.72;;;;;;;19.92;33.04;98390.77;1850942;76;28092;-58
2023/03/09 08:03:35;;;;;;;0.70;0.70;;;;;;;19.92;33.03;98388.58;1861416;76;37097;-57
2023/03/09 08:06:25;;;;;;;0.70;0.70;;;;;;;19.91;33.03;98386.38;1860695;76;28537;-57
2023/03/09 08:09:17;;;;;;;0.80;0.80;;;;;;;19.91;33.04;98387.73;1850976;76;28142;-55
2023/03/09 08:12:06;;;;;;;0.80;0.80;;;;;;;19.92;33.05;98384.48;1837387;77;28332;-53
2023/03/09 08:14:54;;;;;;;0.90;0.90;;;;;;;19.92;33.03;98391.30;1858418;76;28145;-55
2023/03/09 08:17:43;;;;;;;0.82;0.82;;;;;;;19.94;33.03;98397.33;1858589;76;28064;-56
2023/03/09 08:20:32;;;;;;;0.90;0.90;;;;;;;19.93;33.04;98395.66;1837514;77;28198;-52
2023/03/09 08:23:21;;;;;;;0.80;0.80;;;;;;;19.91;33.06;98389.62;1848009;76;28198;-56
2023/03/09 08:26:17;;;;;;;0.80;0.80;;;;;;;19.91;33.04;98400.53;1864094;76;28141;-56
2023/03/09 08:29:01;;;;;;;0.80;0.80;;;;;;;19.94;33.06;98406.87;1858550;76;28159;-55
2023/03/09 08:31:49;;;;;;;0.93;0.93;;;;;;;19.93;33.03;98394.30;1868350;76;28044;-56
2023/03/09 08:34:38;;;;;;;0.90;0.90;;;;;;;19.93;33.03;98403.84;1847339;76;28666;-56
2023/03/09 08:37:27;;;;;;;0.93;0.88;;;;;;;19.94;33.03;98410.95;1847783;76;28056;-54
2023/03/09 08:40:17;;;;;;;0.80;0.80;;;;;;;19.93;33.05;98409.29;1848726;76;28318;-57
2023/03/09 08:43:06;;;;;;;0.80;0.80;;;;;;;19.95;33.03;98415.35;1837602;77;28188;-57
2023/03/09 08:45:54;;;;;;;0.90;0.90;;;;;;;19.92;33.06;98426.73;1858542;76;28213;-56
2023/03/09 08:48:44;;;;;;;0.78;0.78;;;;;;;19.93;33.04;98429.20;1858302;76;28099;-54
2023/03/09 08:51:33;;;;;;;0.80;0.80;;;;;;;19.94;33.02;98430.03;1836392;77;28138;-57
2023/03/09 08:54:21;;;;;;;0.78;0.78;;;;;;;19.96;33.04;98429.25;1851719;76;28163;-56
2023/03/09 08:57:10;;;;;;;0.72;0.72;;;;;;;19.96;32.99;98425.16;1847845;76;28131;-56
2023/03/09 08:59:58;;;;;;;0.62;0.62;;;;;;;19.95;33.04;98426.25;1847970;76;28197;-57
2023/03/09 09:02:46;;;;;;;0.78;0.78;;;;;;;19.97;33.04;98420.02;1849565;76;28224;-57
2023/03/09 09:05:36;;;;;;;0.78;0.78;;;;;;;19.97;33.04;98417.30;1837535;77;28185;-57
2023/03/09 09:08:27;;;;;;;0.90;0.90;;;;;;;19.95;33.05;98421.61;1858513;76;28170;-55
2023/03/09 09:11:17;;;;;;;0.85;0.85;;;;;;;19.97;33.03;98424.94;1860875;76;28086;-56
2023/03/09 09:14:06;;;;;;;0.65;0.65;;;;;;;19.97;33.03;98429.03;1850773;76;28232;-58
2023/03/09 09:16:55;;;;;;;0.90;0.90;;;;;;;19.98;33.03;98425.75;1850306;76;28099;-56
2023/03/09 09:19:44;;;;;;;0.70;0.70;;;;;;;19.99;33.02;98424.69;1847970;76;28097;-57
2023/03/09 09:22:32;;;;;;;0.90;0.90;;;;;;;19.98;33.00;98414.31;1847771;76;28161;-57
2023/03/09 09:25:20;;;;;;;0.60;0.60;;;;;;;19.99;33.02;98426.05;1851503;76;28170;-57
2023/03/09 09:28:09;;;;;;;0.60;0.60;;;;;;;19.99;33.00;98424.69;1849514;76;28172;-58
2023/03/09 09:31:00;;;;;;;0.80;0.80;;;;;;;19.98;33.04;98418.41;1869059;76;28181;-55
2023/03/09 09:33:48;;;;;;;0.80;0.80;;;;;;;19.99;32.99;98417.34;1867681;76;28072;-56
2023/03/09 09:36:38;;;;;;;0.80;0.80;;;;;;;20.02;32.99;98420.65;1854251;76;28213;-57
2023/03/09 09:39:28;;;;;;;0.80;0.80;;;;;;;20.03;32.96;98412.75;1848921;76;28151;-56
2023/03/09 09:42:19;;;;;;;0.70;0.70;;;;;;;20.02;32.94;98410.58;1848161;76;28122;-59
2023/03/09 09:45:26;;;;;;;0.90;0.90;;;;;;;20.04;32.92;98408.44;1868312;76;28196;-58
2023/03/09 09:48:17;;;;;;;0.90;0.90;;;;;;;20.03;32.96;98402.67;1858090;76;28102;-57
2023/03/09 09:51:30;;;;;;;0.60;0.60;;;;;;;20.01;32.96;98399.38;1853019;76;31116;-54
2023/03/09 09:54:37;;;;;;;0.68;0.68;;;;;;;20.00;32.97;98387.63;1851426;76;28505;-56
2023/03/09 09:57:44;;;;;;;0.65;0.65;;;;;;;20.00;32.99;98388.16;1850024;76;28126;-57
2023/03/09 10:00:44;;;;;;;0.70;0.70;;;;;;;19.99;33.02;98394.70;1848072;76;28095;-56
2023/03/09 10:03:39;;;;;;;0.70;0.70;;;;;;;20.00;32.96;98384.08;1848391;76;28133;-57
2023/03/09 10:06:29;;;;;;;0.90;0.80;;;;;;;19.99;32.99;98383.27;1865788;76;28267;-56
2023/03/09 10:09:23;;;;;;;0.70;0.70;;;;;;;20.01;33.02;98376.20;1856511;76;28074;-55
2023/03/09 10:12:15;;;;;;;0.75;0.75;;;;;;;20.03;32.95;98379.51;1868977;76;28064;-57
2023/03/09 10:15:06;;;;;;;0.80;0.80;;;;;;;20.02;32.97;98371.05;1847895;76;28139;-55
2023/03/09 10:18:06;;;;;;;0.57;0.57;;;;;;;20.03;32.99;98368.61;1848115;76;28171;-53
2023/03/09 10:20:55;;;;;;;1.02;0.78;;;;;;;20.07;32.93;98366.23;1847678;76;28189;-54
2023/03/09 10:23:44;;;;;;;0.68;0.68;;;;;;;20.06;32.89;98364.03;1851700;76;28379;-55
2023/03/09 10:26:48;;;;;;;0.67;0.57;;;;;;;20.05;32.92;98365.09;1837640;77;28146;-54
2023/03/09 10:29:57;;;;;;;0.80;0.80;;;;;;;20.06;32.89;98361.31;1859015;76;31259;-56
2023/03/09 10:32:57;;;;;;;0.68;0.68;;;;;;;20.07;32.90;98352.60;1858848;76;28173;-55
2023/03/09 10:35:58;;;;;;;0.80;0.80;;;;;;;20.03;32.91;98345.44;1863294;76;28135;-54
2023/03/09 10:38:46;;;;;;;0.80;0.80;;;;;;;20.05;32.92;98345.21;1847749;76;28186;-57
2023/03/09 10:41:36;;;;;;;0.72;0.72;;;;;;;20.07;32.92;98349.88;1852507;76;28176;-57
2023/03/09 10:44:25;;;;;;;0.80;0.80;;;;;;;20.08;32.91;98342.80;1849067;76;31981;-56
2023/03/09 10:47:14;;;;;;;0.70;0.70;;;;;;;20.09;32.87;98344.47;1863197;76;28180;-57
2023/03/09 10:50:09;;;;;;;0.57;0.57;;;;;;;20.10;32.89;98347.47;1858628;76;28099;-55
2023/03/09 10:52:58;;;;;;;0.80;0.80;;;;;;;20.13;32.86;98344.27;1854949;76;28133;-54
2023/03/09 10:55:47;;;;;;;0.60;0.60;;;;;;;20.10;32.87;98337.93;1869205;76;28052;-53
2023/03/09 10:58:36;;;;;;;0.80;0.80;;;;;;;20.13;32.89;98335.25;1866056;76;28233;-55
2023/03/09 11:01:26;;;;;;;0.90;0.90;;;;;;;20.14;32.82;98338.28;1847940;76;28205;-57
2023/03/09 11:04:26;;;;;;;0.77;0.77;;;;;;;20.13;32.84;98342.90;1853329;76;28104;-54
2023/03/09 11:07:32;;;;;;;0.70;0.70;;;;;;;20.14;32.86;98354.08;1850713;76;28103;-53
2023/03/09 11:10:30;;;;;;;0.60;0.60;;;;;;;20.13;32.91;98359.25;1869171;76;28260;-52
2023/03/09 11:13:20;;;;;;;0.80;0.80;;;;;;;20.13;32.87;98358.42;1840436;76;28129;-56
2023/03/09 11:16:17;;;;;;;0.80;0.80;;;;;;;20.11;32.92;98357.31;1858460;76;28060;-54
2023/03/09 11:19:09;;;;;;;0.70;0.70;;;;;;;20.10;32.93;98352.92;1857380;76;28081;-55
2023/03/09 11:22:00;;;;;;;0.70;0.70;;;;;;;20.12;32.93;98367.69;1854327;76;28193;-56
2023/03/09 11:24:51;;;;;;;0.88;0.88;;;;;;;20.12;32.92;98364.41;1863185;76;28212;-54
2023/03/09 11:27:42;;;;;;;0.70;0.70;;;;;;;20.12;32.93;98363.60;1872805;76;28426;-56
2023/03/09 11:30:31;;;;;;;0.90;0.90;;;;;;;20.13;32.92;98361.98;1856724;76;28204;-54
2023/03/09 11:33:20;;;;;;;0.70;0.70;;;;;;;20.15;32.91;98361.20;1846589;76;28248;-56
2023/03/09 11:36:12;;;;;;;0.70;0.70;;;;;;;20.15;32.92;98360.36;1856719;76;28142;-51
2023/03/09 11:39:04;;;;;;;0.73;0.73;;;;;;;20.15;32.88;98348.09;1851395;76;28146;-56
2023/03/09 11:41:55;;;;;;;0.50;0.50;;;;;;;20.18;32.84;98345.72;1867579;76;28099;-55
2023/03/09 11:44:47;;;;;;;0.55;0.55;;;;;;;20.18;32.83;98338.07;1861544;76;28188;-56
2023/03/09 11:47:52;;;;;;;0.70;0.70;;;;;;;20.19;32.88;98336.98;1857643;76;28193;-56
2023/03/09 11:50:44;;;;;;;0.70;0.70;;;;;;;20.14;32.85;98329.54;1869324;76;28141;-56
2023/03/09 11:53:38;;;;;;;0.60;0.60;;;;;;;20.17;32.90;98330.42;1871756;76;28040;-53
2023/03/09 11:56:29;;;;;;;0.70;0.70;;;;;;;20.19;32.88;98323.34;1857430;76;28180;-53
2023/03/09 11:59:46;;;;;;;0.65;0.65;;;;;;;20.19;32.89;98328.27;1862100;76;28051;-56
2023/03/09 12:02:54;;;;;;;0.80;0.80;;;;;;;20.18;32.87;98332.09;1846452;77;28594;-54
2023/03/09 12:05:52;;;;;;;0.70;0.70;;;;;;;20.16;32.90;98321.97;1846361;76;28130;-54
2023/03/09 12:08:46;;;;;;;0.70;0.70;;;;;;;20.16;32.92;98317.05;1877805;76;28055;-51
2023/03/09 12:11:43;;;;;;;0.70;0.70;;;;;;;20.14;32.97;98306.92;1872775;76;28141;-59
2023/03/09 12:14:37;;;;;;;0.70;0.70;;;;;;;20.16;32.95;98306.97;1867613;76;28101;-55
2023/03/09 12:17:34;;;;;;;0.70;0.70;;;;;;;20.18;32.89;98305.35;1865533;76;28067;-57
2023/03/09 12:20:26;;;;;;;0.60;0.60;;;;;;;20.20;32.90;98304.03;1863248;76;28130;-56
2023/03/09 12:23:43;;;;;;;0.80;0.80;;;;;;;20.20;32.89;98293.66;1867798;76;28225;-55
2023/03/09 12:26:30;;;;;;;0.62;0.62;;;;;;;20.22;32.88;98290.17;1867511;76;28236;-57
2023/03/09 12:29:22;;;;;;;0.70;0.70;;;;;;;20.21;32.88;98286.58;1850085;76;28162;-56
2023/03/09 12:32:25;;;;;;;0.63;0.63;;;;;;;20.22;32.87;98278.73;1878455;76;28615;-56
2023/03/09 12:35:23;;;;;;;0.72;0.72;;;;;;;20.24;32.87;98273.02;1863815;76;28133;-57
2023/03/09 12:38:20;;;;;;;0.60;0.60;;;;;;;20.24;32.83;98267.57;1860150;76;28728;-56
2023/03/09 12:41:13;;;;;;;0.72;0.72;;;;;;;20.24;32.85;98262.12;1846742;76;28142;-55
2023/03/09 12:44:02;;;;;;;0.70;0.62;;;;;;;20.26;32.83;98255.34;1873175;76;28107;-57
2023/03/09 12:46:59;;;;;;;0.72;0.72;;;;;;;20.26;32.82;98251.25;1857235;76;28188;-56
2023/03/09 12:49:51;;;;;;;0.70;0.70;;;;;;;20.27;32.79;98238.45;1863782;76;28050;-55
2023/03/09 12:52:43;;;;;;;0.73;0.73;;;;;;;20.27;32.79;98228.38;1859929;76;28114;-55
2023/03/09 12:55:40;;;;;;;0.68;0.68;;;;;;;20.28;32.83;98221.03;1878093;76;28169;-59
2023/03/09 12:58:31;;;;;;;0.70;0.70;;;;;;;20.29;32.79;98209.86;1857134;76;28095;-56
2023/03/09 13:01:22;;;;;;;0.65;0.65;;;;;;;20.27;32.77;98205.20;1857114;76;28228;-59
2023/03/09 13:04:13;;;;;;;0.55;0.55;;;;;;;20.29;32.78;98196.23;1862113;76;28040;-56
2023/03/09 13:07:02;;;;;;;1.00;0.80;;;;;;;20.31;32.77;98191.88;1846303;77;28306;-59
2023/03/09 13:09:54;;;;;;;0.60;0.60;;;;;;;20.31;32.78;98189.98;1872842;76;28081;-55
2023/03/09 13:12:43;;;;;;;0.80;0.80;;;;;;;20.32;32.75;98177.17;1856394;76;28645;-57
2023/03/09 13:15:31;;;;;;;0.60;0.60;;;;;;;20.32;32.72;98173.92;1862404;76;28134;-56
2023/03/09 13:18:22;;;;;;;0.60;0.60;;;;;;;20.33;32.75;98159.72;1867862;76;28137;-56
2023/03/09 13:21:39;;;;;;;0.65;0.65;;;;;;;20.35;32.73;98151.58;1872465;76;28099;-53
2023/03/09 13:24:40;;;;;;;0.75;0.75;;;;;;;20.33;32.71;98149.64;1856801;76;28160;-54
2023/03/09 13:27:31;;;;;;;0.70;0.70;;;;;;;20.32;32.75;98143.09;1837463;76;28224;-58